sensor_id;sensor_type;location;lat;lon;timestamp;pressure;altitude;pressure_sealevel;temperature;humidity
29239;BME280;16267;48.194;11.546;2023-05-02T00:00:27;96036.31;;;11.42;100.00
29239;BME280;16267;48.194;11.546;2023-05-02T00:02:54;96035.91;;;11.44;100.00
29239;BME280;16267;48.194;11.546;2023-05-02T00:05:20;96029.38;;;11.45;100.00
29239;BME280;16267;48.194;11.546;2023-05-02T00:07:45;96039.72;;;11.46;100.00
29239;BME280;16267;48.194;11.546;2023-05-02T00:10:12;96032.06;;;11.45;100.00
29239;BME280;16267;48.194;11.546;2023-05-02T00:12:38;96032.06;;;11.45;100.00
29239;BME280;16267;48.194;11.546;2023-05-02T00:15:04;96032.06;;;11.45;100.00
29239;BME280;16267;48.194;11.546;2023-05-02T00:17:31;96026.69;;;11.45;100.00
29239;BME280;16267;48.194;11.546;2023-05-02T00:19:56;96027.84;;;11.44;99.67
29239;BME280;16267;48.194;11.546;2023-05-02T00:22:22;96023.66;;;11.43;99.28
29239;BME280;16267;48.194;11.546;2023-05-02T00:24:48;96024.41;;;11.43;98.94
29239;BME280;16267;48.194;11.546;2023-05-02T00:27:13;96037.09;;;11.43;99.03
29239;BME280;16267;48.194;11.546;2023-05-02T00:29:39;96034.78;;;11.41;99.29
29239;BME280;16267;48.194;11.546;2023-05-02T00:32:06;96030.22;;;11.38;99.09
29239;BME280;16267;48.194;11.546;2023-05-02T00:34:31;96033.66;;;11.38;99.21
29239;BME280;16267;48.194;11.546;2023-05-02T00:36:57;96026.06;;;11.33;98.97
29239;BME280;16267;48.194;11.546;2023-05-02T00:39:23;96025.28;;;11.33;99.15
29239;BME280;16267;48.194;11.546;2023-05-02T00:41:56;96021.47;;;11.30;99.71
29239;BME280;16267;48.194;11.546;2023-05-02T00:44:22;96022.28;;;11.31;99.52
29239;BME280;16267;48.194;11.546;2023-05-02T00:46:48;96016.91;;;11.27;98.87
29239;BME280;16267;48.194;11.546;2023-05-02T00:49:14;96015.41;;;11.26;99.35
29239;BME280;16267;48.194;11.546;2023-05-02T00:51:40;96024.66;;;11.25;99.06
29239;BME280;16267;48.194;11.546;2023-05-02T00:54:05;96023.84;;;11.25;98.84
29239;BME280;16267;48.194;11.546;2023-05-02T00:56:31;96024.28;;;11.23;98.41
29239;BME280;16267;48.194;11.546;2023-05-02T00:58:57;96021.97;;;11.22;98.04
29239;BME280;16267;48.194;11.546;2023-05-02T01:05:16;96028.91;;;11.19;97.76
29239;BME280;16267;48.194;11.546;2023-05-02T01:08:12;96031.66;;;11.15;97.55
29239;BME280;16267;48.194;11.546;2023-05-02T01:11:01;96031.28;;;11.13;97.71
29239;BME280;16267;48.194;11.546;2023-05-02T01:13:33;96039.75;;;11.12;97.76
29239;BME280;16267;48.194;11.546;2023-05-02T01:16:01;96037.06;;;11.12;97.66
29239;BME280;16267;48.194;11.546;2023-05-02T01:18:34;96033.63;;;11.11;97.57
29239;BME280;16267;48.194;11.546;2023-05-02T01:21:06;96032.09;;;11.10;97.45
29239;BME280;16267;48.194;11.546;2023-05-02T01:24:11;96035.94;;;11.09;97.07
29239;BME280;16267;48.194;11.546;2023-05-02T01:29:49;96030.22;;;11.07;96.42
29239;BME280;16267;48.194;11.546;2023-05-02T01:32:16;96041.38;;;11.06;96.42
29239;BME280;16267;48.194;11.546;2023-05-02T01:34:46;96033.34;;;11.02;96.00
29239;BME280;16267;48.194;11.546;2023-05-02T01:37:14;96035.28;;;11.02;96.71
29239;BME280;16267;48.194;11.546;2023-05-02T01:39:41;96035.69;;;11.00;96.66
29239;BME280;16267;48.194;11.546;2023-05-02T01:42:10;96034.16;;;10.99;96.50
29239;BME280;16267;48.194;11.546;2023-05-02T01:44:38;96038.00;;;10.98;96.46
29239;BME280;16267;48.194;11.546;2023-05-02T01:47:06;96035.69;;;10.97;96.11
29239;BME280;16267;48.194;11.546;2023-05-02T01:49:34;96038.81;;;10.95;96.31
29239;BME280;16267;48.194;11.546;2023-05-02T01:52:05;96036.13;;;10.95;96.07
29239;BME280;16267;48.194;11.546;2023-05-02T01:54:34;96039.19;;;10.93;95.74
29239;BME280;16267;48.194;11.546;2023-05-02T01:57:05;96039.59;;;10.92;95.91
29239;BME280;16267;48.194;11.546;2023-05-02T01:59:33;96032.31;;;10.89;95.91
29239;BME280;16267;48.194;11.546;2023-05-02T02:02:01;96036.19;;;10.88;95.93
29239;BME280;16267;48.194;11.546;2023-05-02T02:04:29;96051.53;;;10.87;95.74
29239;BME280;16267;48.194;11.546;2023-05-02T02:07:08;96044.66;;;10.86;96.04
29239;BME280;16267;48.194;11.546;2023-05-02T02:09:35;96051.94;;;10.86;95.72
29239;BME280;16267;48.194;11.546;2023-05-02T02:14:54;96050.81;;;10.83;95.55
29239;BME280;16267;48.194;11.546;2023-05-02T02:17:36;96054.66;;;10.82;95.52
29239;BME280;16267;48.194;11.546;2023-05-02T02:20:06;96059.28;;;10.82;95.37
29239;BME280;16267;48.194;11.546;2023-05-02T02:22:36;96063.09;;;10.81;95.17
29239;BME280;16267;48.194;11.546;2023-05-02T02:25:06;96065.44;;;10.79;95.14
29239;BME280;16267;48.194;11.546;2023-05-02T02:27:33;96062.00;;;10.78;95.12
29239;BME280;16267;48.194;11.546;2023-05-02T02:29:59;96063.16;;;10.77;95.13
29239;BME280;16267;48.194;11.546;2023-05-02T02:32:25;96068.94;;;10.76;95.12
29239;BME280;16267;48.194;11.546;2023-05-02T02:34:51;96071.59;;;10.76;94.93
29239;BME280;16267;48.194;11.546;2023-05-02T02:37:38;96074.69;;;10.74;95.03
29239;BME280;16267;48.194;11.546;2023-05-02T02:42:51;96077.78;;;10.73;94.88
29239;BME280;16267;48.194;11.546;2023-05-02T02:49:31;96077.41;;;10.70;94.65
29239;BME280;16267;48.194;11.546;2023-05-02T02:54:46;96077.41;;;10.70;95.04
29239;BME280;16267;48.194;11.546;2023-05-02T02:57:35;96080.47;;;10.69;94.61
29239;BME280;16267;48.194;11.546;2023-05-02T03:00:12;96082.41;;;10.68;94.65
29239;BME280;16267;48.194;11.546;2023-05-02T03:02:41;96084.31;;;10.68;94.64
29239;BME280;16267;48.194;11.546;2023-05-02T03:05:08;96091.63;;;10.67;94.51
29239;BME280;16267;48.194;11.546;2023-05-02T03:07:35;96089.31;;;10.66;94.50
29239;BME280;16267;48.194;11.546;2023-05-02T03:10:03;96090.09;;;10.66;94.39
29239;BME280;16267;48.194;11.546;2023-05-02T03:12:30;96093.19;;;10.65;94.23
29239;BME280;16267;48.194;11.546;2023-05-02T03:17:39;96094.31;;;10.64;93.94
29239;BME280;16267;48.194;11.546;2023-05-02T03:20:05;96094.72;;;10.62;93.83
29239;BME280;16267;48.194;11.546;2023-05-02T03:22:34;96097.41;;;10.62;93.81
29239;BME280;16267;48.194;11.546;2023-05-02T03:25:00;96102.41;;;10.60;93.70
29239;BME280;16267;48.194;11.546;2023-05-02T03:27:25;96098.59;;;10.58;93.49
29239;BME280;16267;48.194;11.546;2023-05-02T03:29:52;96104.72;;;10.58;93.64
29239;BME280;16267;48.194;11.546;2023-05-02T03:32:18;96099.78;;;10.57;93.43
29239;BME280;16267;48.194;11.546;2023-05-02T03:34:44;96099.41;;;10.55;93.43
29239;BME280;16267;48.194;11.546;2023-05-02T03:37:09;96105.94;;;10.54;93.22
29239;BME280;16267;48.194;11.546;2023-05-02T03:39:35;96098.25;;;10.52;93.06
29239;BME280;16267;48.194;11.546;2023-05-02T03:42:01;96102.13;;;10.51;93.04
29239;BME280;16267;48.194;11.546;2023-05-02T03:44:27;96105.19;;;10.49;92.92
29239;BME280;16267;48.194;11.546;2023-05-02T03:46:52;96107.53;;;10.47;92.96
29239;BME280;16267;48.194;11.546;2023-05-02T03:49:18;96118.63;;;10.46;92.68
29239;BME280;16267;48.194;11.546;2023-05-02T03:51:44;96115.19;;;10.45;92.43
29239;BME280;16267;48.194;11.546;2023-05-02T03:54:10;96119.03;;;10.44;92.53
29239;BME280;16267;48.194;11.546;2023-05-02T03:56:36;96117.88;;;10.42;92.69
29239;BME280;16267;48.194;11.546;2023-05-02T03:59:01;96119.47;;;10.39;92.81
29239;BME280;16267;48.194;11.546;2023-05-02T04:01:28;96124.47;;;10.37;92.69
29239;BME280;16267;48.194;11.546;2023-05-02T04:03:54;96125.59;;;10.36;93.09
29239;BME280;16267;48.194;11.546;2023-05-02T04:06:20;96125.25;;;10.34;93.24
29239;BME280;16267;48.194;11.546;2023-05-02T04:08:45;96127.94;;;10.34;93.04
29239;BME280;16267;48.194;11.546;2023-05-02T04:11:11;96134.84;;;10.32;93.13
29239;BME280;16267;48.194;11.546;2023-05-02T04:13:37;96137.53;;;10.32;92.82
29239;BME280;16267;48.194;11.546;2023-05-02T04:16:03;96138.66;;;10.31;92.88
29239;BME280;16267;48.194;11.546;2023-05-02T04:18:29;96150.19;;;10.31;92.77
29239;BME280;16267;48.194;11.546;2023-05-02T04:20:55;96145.97;;;10.30;92.94
29239;BME280;16267;48.194;11.546;2023-05-02T04:23:21;96146.72;;;10.31;92.93
29239;BME280;16267;48.194;11.546;2023-05-02T04:25:56;96144.44;;;10.29;92.79
29239;BME280;16267;48.194;11.546;2023-05-02T04:28:22;96145.19;;;10.30;92.81
29239;BME280;16267;48.194;11.546;2023-05-02T04:30:48;96151.31;;;10.30;92.99
29239;BME280;16267;48.194;11.546;2023-05-02T04:33:14;96152.88;;;10.31;92.91
29239;BME280;16267;48.194;11.546;2023-05-02T04:35:40;96159.00;;;10.32;93.00
29239;BME280;16267;48.194;11.546;2023-05-02T04:38:06;96153.63;;;10.32;92.92
29239;BME280;16267;48.194;11.546;2023-05-02T04:40:33;96163.94;;;10.33;93.10
29239;BME280;16267;48.194;11.546;2023-05-02T04:42:59;96162.06;;;10.34;93.17
29239;BME280;16267;48.194;11.546;2023-05-02T04:45:25;96168.53;;;10.36;93.31
29239;BME280;16267;48.194;11.546;2023-05-02T04:47:51;96166.63;;;10.37;93.04
29239;BME280;16267;48.194;11.546;2023-05-02T04:50:16;96176.19;;;10.38;93.06
29239;BME280;16267;48.194;11.546;2023-05-02T04:52:42;96184.63;;;10.40;93.23
29239;BME280;16267;48.194;11.546;2023-05-02T04:55:08;96184.22;;;10.41;93.95
29239;BME280;16267;48.194;11.546;2023-05-02T04:57:34;96184.97;;;10.42;94.33
29239;BME280;16267;48.194;11.546;2023-05-02T05:00:00;96196.50;;;10.42;94.60
29239;BME280;16267;48.194;11.546;2023-05-02T05:02:25;96191.13;;;10.42;94.94
29239;BME280;16267;48.194;11.546;2023-05-02T05:04:51;96192.63;;;10.43;95.46
29239;BME280;16267;48.194;11.546;2023-05-02T05:07:17;96195.31;;;10.43;95.90
29239;BME280;16267;48.194;11.546;2023-05-02T05:09:43;96199.53;;;10.44;95.87
29239;BME280;16267;48.194;11.546;2023-05-02T05:12:08;96210.25;;;10.48;96.32
29239;BME280;16267;48.194;11.546;2023-05-02T05:14:34;96204.47;;;10.49;96.04
29239;BME280;16267;48.194;11.546;2023-05-02T05:17:00;96208.28;;;10.52;95.80
29239;BME280;16267;48.194;11.546;2023-05-02T05:19:26;96205.59;;;10.52;96.46
29239;BME280;16267;48.194;11.546;2023-05-02T05:21:52;96208.25;;;10.56;97.38
29239;BME280;16267;48.194;11.546;2023-05-02T05:24:18;96203.69;;;10.56;97.21
29239;BME280;16267;48.194;11.546;2023-05-02T05:26:43;96209.06;;;10.56;97.84
29239;BME280;16267;48.194;11.546;2023-05-02T05:29:09;96205.97;;;10.58;99.11
29239;BME280;16267;48.194;11.546;2023-05-02T05:31:35;96210.53;;;10.61;99.16
29239;BME280;16267;48.194;11.546;2023-05-02T05:34:01;96220.91;;;10.55;97.53
29239;BME280;16267;48.194;11.546;2023-05-02T05:36:29;96218.66;;;10.54;99.44
29239;BME280;16267;48.194;11.546;2023-05-02T05:38:55;96225.13;;;10.60;100.00
29239;BME280;16267;48.194;11.546;2023-05-02T05:41:21;96223.94;;;10.61;100.00
29239;BME280;16267;48.194;11.546;2023-05-02T05:43:47;96230.06;;;10.65;100.00
29239;BME280;16267;48.194;11.546;2023-05-02T05:46:13;96230.03;;;10.68;100.00
29239;BME280;16267;48.194;11.546;2023-05-02T05:48:39;96230.41;;;10.70;100.00
29239;BME280;16267;48.194;11.546;2023-05-02T05:51:05;96235.38;;;10.76;100.00
29239;BME280;16267;48.194;11.546;2023-05-02T05:53:31;96238.78;;;10.80;100.00
29239;BME280;16267;48.194;11.546;2023-05-02T05:55:57;96239.94;;;10.79;100.00
29239;BME280;16267;48.194;11.546;2023-05-02T05:58:23;96238.75;;;10.83;100.00
29239;BME280;16267;48.194;11.546;2023-05-02T06:00:49;96239.50;;;10.87;100.00
29239;BME280;16267;48.194;11.546;2023-05-02T06:03:15;96237.56;;;10.88;100.00
29239;BME280;16267;48.194;11.546;2023-05-02T06:05:41;96245.22;;;10.93;100.00
29239;BME280;16267;48.194;11.546;2023-05-02T06:08:07;96249.78;;;10.96;100.00
29239;BME280;16267;48.194;11.546;2023-05-02T06:10:33;96245.56;;;10.99;100.00
29239;BME280;16267;48.194;11.546;2023-05-02T06:12:59;96251.31;;;10.97;100.00
29239;BME280;16267;48.194;11.546;2023-05-02T06:15:24;96258.59;;;11.00;100.00
29239;BME280;16267;48.194;11.546;2023-05-02T06:17:51;96262.47;;;10.96;100.00
29239;BME280;16267;48.194;11.546;2023-05-02T06:20:17;96265.41;;;11.08;100.00
29239;BME280;16267;48.194;11.546;2023-05-02T06:22:42;96272.25;;;11.16;100.00
29239;BME280;16267;48.194;11.546;2023-05-02T06:25:08;96275.66;;;11.24;100.00
29239;BME280;16267;48.194;11.546;2023-05-02T06:27:34;96272.16;;;11.27;100.00
29239;BME280;16267;48.194;11.546;2023-05-02T06:30:00;96268.25;;;11.35;100.00
29239;BME280;16267;48.194;11.546;2023-05-02T06:32:30;96272.03;;;11.42;100.00
29239;BME280;16267;48.194;11.546;2023-05-02T06:34:56;96273.16;;;11.44;100.00
29239;BME280;16267;48.194;11.546;2023-05-02T06:37:22;96283.88;;;11.51;100.00
29239;BME280;16267;48.194;11.546;2023-05-02T06:39:48;96286.88;;;11.57;100.00
29239;BME280;16267;48.194;11.546;2023-05-02T06:42:14;96285.66;;;11.65;100.00
29239;BME280;16267;48.194;11.546;2023-05-02T06:44:39;96291.41;;;11.64;100.00
29239;BME280;16267;48.194;11.546;2023-05-02T06:47:05;96283.72;;;11.66;100.00
29239;BME280;16267;48.194;11.546;2023-05-02T06:49:32;96292.06;;;11.75;100.00
29239;BME280;16267;48.194;11.546;2023-05-02T06:51:58;96288.28;;;11.72;100.00
29239;BME280;16267;48.194;11.546;2023-05-02T06:54:25;96291.31;;;11.78;100.00
29239;BME280;16267;48.194;11.546;2023-05-02T06:56:50;96296.38;;;11.69;99.35
29239;BME280;16267;48.194;11.546;2023-05-02T06:59:16;96297.03;;;11.80;100.00
29239;BME280;16267;48.194;11.546;2023-05-02T07:01:43;96298.16;;;11.86;100.00
29239;BME280;16267;48.194;11.546;2023-05-02T07:04:09;96296.88;;;11.98;100.00
29239;BME280;16267;48.194;11.546;2023-05-02T07:06:38;96301.78;;;12.07;100.00
29239;BME280;16267;48.194;11.546;2023-05-02T07:09:04;96302.03;;;12.16;100.00
29239;BME280;16267;48.194;11.546;2023-05-02T07:11:30;96308.25;;;12.13;98.80
29239;BME280;16267;48.194;11.546;2023-05-02T07:13:56;96307.41;;;12.19;99.90
29239;BME280;16267;48.194;11.546;2023-05-02T07:16:22;96300.38;;;12.29;100.00
29239;BME280;16267;48.194;11.546;2023-05-02T07:18:48;96304.22;;;12.28;96.66
29239;BME280;16267;48.194;11.546;2023-05-02T07:21:13;96306.50;;;12.30;97.82
29239;BME280;16267;48.194;11.546;2023-05-02T07:23:39;96314.22;;;12.27;96.69
29239;BME280;16267;48.194;11.546;2023-05-02T07:26:05;96311.94;;;12.26;96.44
29239;BME280;16267;48.194;11.546;2023-05-02T07:28:31;96304.53;;;12.34;97.69
29239;BME280;16267;48.194;11.546;2023-05-02T07:30:57;96304.84;;;12.39;98.02
29239;BME280;16267;48.194;11.546;2023-05-02T07:33:23;96305.19;;;12.41;97.85
29239;BME280;16267;48.194;11.546;2023-05-02T07:35:50;96308.81;;;12.31;96.64
29239;BME280;16267;48.194;11.546;2023-05-02T07:38:16;96307.50;;;12.43;99.22
29239;BME280;16267;48.194;11.546;2023-05-02T07:40:45;96309.38;;;12.46;99.09
29239;BME280;16267;48.194;11.546;2023-05-02T07:43:12;96313.94;;;12.53;97.54
29239;BME280;16267;48.194;11.546;2023-05-02T07:45:38;96316.56;;;12.56;96.01
29239;BME280;16267;48.194;11.546;2023-05-02T07:48:03;96314.56;;;12.60;93.74
29239;BME280;16267;48.194;11.546;2023-05-02T07:50:29;96313.13;;;12.56;93.74
29239;BME280;16267;48.194;11.546;2023-05-02T07:52:55;96316.94;;;12.58;92.86
29239;BME280;16267;48.194;11.546;2023-05-02T07:55:21;96316.00;;;12.68;94.55
29239;BME280;16267;48.194;11.546;2023-05-02T07:57:47;96308.97;;;12.78;94.98
29239;BME280;16267;48.194;11.546;2023-05-02T08:00:14;96324.19;;;12.88;95.66
29239;BME280;16267;48.194;11.546;2023-05-02T08:02:41;96323.72;;;12.97;94.95
29239;BME280;16267;48.194;11.546;2023-05-02T08:05:07;96326.22;;;13.08;95.14
29239;BME280;16267;48.194;11.546;2023-05-02T08:07:33;96335.41;;;13.14;94.50
29239;BME280;16267;48.194;11.546;2023-05-02T08:10:02;96328.44;;;13.16;91.27
29239;BME280;16267;48.194;11.546;2023-05-02T08:12:28;96335.97;;;13.29;93.10
29239;BME280;16267;48.194;11.546;2023-05-02T08:14:53;96333.50;;;13.38;93.83
29239;BME280;16267;48.194;11.546;2023-05-02T08:17:19;96335.66;;;13.47;92.63
29239;BME280;16267;48.194;11.546;2023-05-02T08:19:46;96337.22;;;13.48;89.50
29239;BME280;16267;48.194;11.546;2023-05-02T08:22:14;96330.16;;;13.54;89.39
29239;BME280;16267;48.194;11.546;2023-05-02T08:24:40;96335.84;;;13.59;89.43
29239;BME280;16267;48.194;11.546;2023-05-02T08:27:06;96336.06;;;13.69;90.21
29239;BME280;16267;48.194;11.546;2023-05-02T08:29:31;96332.88;;;13.77;90.87
29239;BME280;16267;48.194;11.546;2023-05-02T08:31:57;96330.38;;;13.87;90.85
29239;BME280;16267;48.194;11.546;2023-05-02T08:34:23;96335.25;;;13.95;91.00
29239;BME280;16267;48.194;11.546;2023-05-02T08:36:49;96342.59;;;13.95;87.15
29239;BME280;16267;48.194;11.546;2023-05-02T08:39:15;96331.25;;;14.03;88.52
29239;BME280;16267;48.194;11.546;2023-05-02T08:41:41;96332.63;;;14.12;88.52
29239;BME280;16267;48.194;11.546;2023-05-02T08:44:07;96336.09;;;14.12;85.17
29239;BME280;16267;48.194;11.546;2023-05-02T08:46:35;96339.50;;;14.16;86.18
29239;BME280;16267;48.194;11.546;2023-05-02T08:49:02;96335.50;;;14.24;87.64
29239;BME280;16267;48.194;11.546;2023-05-02T08:51:29;96334.84;;;14.37;86.91
29239;BME280;16267;48.194;11.546;2023-05-02T08:53:57;96337.16;;;14.38;86.07
29239;BME280;16267;48.194;11.546;2023-05-02T08:56:24;96329.09;;;14.35;84.37
29239;BME280;16267;48.194;11.546;2023-05-02T08:58:50;96337.81;;;14.42;84.26
29239;BME280;16267;48.194;11.546;2023-05-02T09:01:18;96340.44;;;14.46;83.80
29239;BME280;16267;48.194;11.546;2023-05-02T09:03:47;96341.72;;;14.41;81.70
29239;BME280;16267;48.194;11.546;2023-05-02T09:06:18;96343.34;;;14.35;80.21
29239;BME280;16267;48.194;11.546;2023-05-02T09:08:50;96357.22;;;14.37;81.35
29239;BME280;16267;48.194;11.546;2023-05-02T09:11:18;96349.38;;;14.43;80.26
29239;BME280;16267;48.194;11.546;2023-05-02T09:13:48;96360.94;;;14.43;81.98
29239;BME280;16267;48.194;11.546;2023-05-02T09:16:20;96361.19;;;14.53;82.36
29239;BME280;16267;48.194;11.546;2023-05-02T09:18:56;96357.50;;;14.63;81.52
29239;BME280;16267;48.194;11.546;2023-05-02T09:21:34;96355.34;;;14.74;82.78
29239;BME280;16267;48.194;11.546;2023-05-02T09:24:14;96358.56;;;14.85;82.38
29239;BME280;16267;48.194;11.546;2023-05-02T09:26:40;96357.25;;;14.93;79.83
29239;BME280;16267;48.194;11.546;2023-05-02T09:29:06;96363.69;;;15.00;78.35
29239;BME280;16267;48.194;11.546;2023-05-02T09:31:34;96366.22;;;15.07;79.14
29239;BME280;16267;48.194;11.546;2023-05-02T09:34:15;96364.53;;;15.13;79.98
29239;BME280;16267;48.194;11.546;2023-05-02T09:36:45;96367.84;;;15.21;78.21
29239;BME280;16267;48.194;11.546;2023-05-02T09:39:19;96369.81;;;15.20;75.95
29239;BME280;16267;48.194;11.546;2023-05-02T09:41:47;96374.28;;;15.27;77.89
29239;BME280;16267;48.194;11.546;2023-05-02T09:44:15;96373.03;;;15.31;76.94
29239;BME280;16267;48.194;11.546;2023-05-02T09:46:48;96369.31;;;15.42;77.73
29239;BME280;16267;48.194;11.546;2023-05-02T09:49:14;96381.03;;;15.35;73.44
29239;BME280;16267;48.194;11.546;2023-05-02T09:51:43;96372.13;;;15.38;74.91
29239;BME280;16267;48.194;11.546;2023-05-02T09:54:10;96377.09;;;15.39;75.76
29239;BME280;16267;48.194;11.546;2023-05-02T09:56:55;96374.97;;;15.47;77.09
29239;BME280;16267;48.194;11.546;2023-05-02T09:59:22;96364.81;;;15.51;75.50
29239;BME280;16267;48.194;11.546;2023-05-02T10:01:56;96365.06;;;15.57;74.92
29239;BME280;16267;48.194;11.546;2023-05-02T10:04:24;96375.22;;;15.53;73.87
29239;BME280;16267;48.194;11.546;2023-05-02T10:06:54;96370.06;;;15.58;74.86
29239;BME280;16267;48.194;11.546;2023-05-02T10:09:20;96370.75;;;15.62;74.30
29239;BME280;16267;48.194;11.546;2023-05-02T10:11:51;96374.97;;;15.64;74.98
29239;BME280;16267;48.194;11.546;2023-05-02T10:14:21;96378.84;;;15.62;73.65
29239;BME280;16267;48.194;11.546;2023-05-02T10:17:10;96368.88;;;15.59;72.86
29239;BME280;16267;48.194;11.546;2023-05-02T10:20:02;96379.38;;;15.57;73.22
29239;BME280;16267;48.194;11.546;2023-05-02T10:22:29;96373.13;;;15.60;73.89
29239;BME280;16267;48.194;11.546;2023-05-02T10:24:57;96374.63;;;15.61;73.53
29239;BME280;16267;48.194;11.546;2023-05-02T10:27:24;96376.16;;;15.62;74.28
29239;BME280;16267;48.194;11.546;2023-05-02T10:29:51;96372.19;;;15.67;74.94
29239;BME280;16267;48.194;11.546;2023-05-02T10:32:17;96374.75;;;15.74;74.70
29239;BME280;16267;48.194;11.546;2023-05-02T10:34:43;96370.00;;;15.78;73.77
29239;BME280;16267;48.194;11.546;2023-05-02T10:37:11;96367.91;;;15.70;71.27
29239;BME280;16267;48.194;11.546;2023-05-02T10:39:37;96375.25;;;15.69;73.48
29239;BME280;16267;48.194;11.546;2023-05-02T10:42:03;96371.34;;;15.70;74.84
29239;BME280;16267;48.194;11.546;2023-05-02T10:44:35;96383.00;;;15.67;74.45
29239;BME280;16267;48.194;11.546;2023-05-02T10:49:56;96371.84;;;15.49;75.26
29239;BME280;16267;48.194;11.546;2023-05-02T10:55:22;96375.38;;;15.46;77.19
29239;BME280;16267;48.194;11.546;2023-05-02T11:00:25;96376.06;;;15.33;76.65
29239;BME280;16267;48.194;11.546;2023-05-02T11:02:51;96377.81;;;15.24;77.08
29239;BME280;16267;48.194;11.546;2023-05-02T11:05:17;96377.56;;;15.18;77.17
29239;BME280;16267;48.194;11.546;2023-05-02T11:07:43;96375.28;;;15.16;78.51
29239;BME280;16267;48.194;11.546;2023-05-02T11:12:57;96374.81;;;15.02;77.17
29239;BME280;16267;48.194;11.546;2023-05-02T11:18:03;96367.06;;;15.04;78.68
29239;BME280;16267;48.194;11.546;2023-05-02T11:20:32;96363.25;;;15.01;79.12
29239;BME280;16267;48.194;11.546;2023-05-02T11:25:42;96369.78;;;15.04;78.33
29239;BME280;16267;48.194;11.546;2023-05-02T11:31:05;96369.53;;;15.14;79.70
29239;BME280;16267;48.194;11.546;2023-05-02T11:33:32;96370.28;;;15.15;76.90
29239;BME280;16267;48.194;11.546;2023-05-02T11:35:58;96374.69;;;15.09;75.84
29239;BME280;16267;48.194;11.546;2023-05-02T11:38:25;96381.00;;;15.02;75.99
29239;BME280;16267;48.194;11.546;2023-05-02T11:40:55;96377.03;;;15.07;75.32
29239;BME280;16267;48.194;11.546;2023-05-02T11:43:22;96380.44;;;15.11;76.94
29239;BME280;16267;48.194;11.546;2023-05-02T11:45:51;96378.84;;;15.13;75.70
29239;BME280;16267;48.194;11.546;2023-05-02T11:48:20;96377.75;;;15.27;76.63
29239;BME280;16267;48.194;11.546;2023-05-02T11:50:49;96379.94;;;15.32;76.27
29239;BME280;16267;48.194;11.546;2023-05-02T11:53:21;96389.09;;;15.38;76.57
29239;BME280;16267;48.194;11.546;2023-05-02T11:55:53;96378.09;;;15.46;75.91
29239;BME280;16267;48.194;11.546;2023-05-02T11:58:22;96381.06;;;15.51;74.97
29239;BME280;16267;48.194;11.546;2023-05-02T12:00:50;96381.75;;;15.39;70.91
29239;BME280;16267;48.194;11.546;2023-05-02T12:03:30;96374.53;;;15.49;72.52
29239;BME280;16267;48.194;11.546;2023-05-02T12:06:16;96383.44;;;15.49;74.47
29239;BME280;16267;48.194;11.546;2023-05-02T12:08:45;96382.50;;;15.56;76.62
29239;BME280;16267;48.194;11.546;2023-05-02T12:11:15;96380.66;;;15.53;76.66
29239;BME280;16267;48.194;11.546;2023-05-02T12:13:46;96374.13;;;15.50;75.62
29239;BME280;16267;48.194;11.546;2023-05-02T12:16:12;96380.56;;;15.56;75.04
29239;BME280;16267;48.194;11.546;2023-05-02T12:18:38;96377.00;;;15.59;75.14
29239;BME280;16267;48.194;11.546;2023-05-02T12:21:04;96378.78;;;15.66;76.17
29239;BME280;16267;48.194;11.546;2023-05-02T12:23:30;96378.19;;;15.58;73.94
29239;BME280;16267;48.194;11.546;2023-05-02T12:25:57;96376.59;;;15.61;76.08
29239;BME280;16267;48.194;11.546;2023-05-02T12:28:23;96382.75;;;15.61;76.03
29239;BME280;16267;48.194;11.546;2023-05-02T12:30:50;96381.16;;;15.64;76.95
29239;BME280;16267;48.194;11.546;2023-05-02T12:33:17;96376.94;;;15.63;75.64
29239;BME280;16267;48.194;11.546;2023-05-02T12:35:43;96382.09;;;15.74;74.70
29239;BME280;16267;48.194;11.546;2023-05-02T12:38:18;96386.59;;;15.80;73.87
29239;BME280;16267;48.194;11.546;2023-05-02T12:40:53;96378.56;;;15.77;75.76
29239;BME280;16267;48.194;11.546;2023-05-02T12:43:22;96377.09;;;15.89;77.05
29239;BME280;16267;48.194;11.546;2023-05-02T12:45:48;96382.25;;;15.99;76.92
29239;BME280;16267;48.194;11.546;2023-05-02T12:48:24;96385.97;;;16.05;75.61
29239;BME280;16267;48.194;11.546;2023-05-02T12:50:52;96382.75;;;16.11;74.21
29239;BME280;16267;48.194;11.546;2023-05-02T12:53:41;96373.06;;;16.10;73.11
29239;BME280;16267;48.194;11.546;2023-05-02T12:56:09;96370.72;;;16.12;73.07
29239;BME280;16267;48.194;11.546;2023-05-02T12:58:46;96373.03;;;15.97;70.00
29239;BME280;16267;48.194;11.546;2023-05-02T13:01:15;96381.91;;;15.97;70.38
29239;BME280;16267;48.194;11.546;2023-05-02T13:03:42;96379.78;;;16.05;72.51
29239;BME280;16267;48.194;11.546;2023-05-02T13:06:09;96378.84;;;16.12;70.83
29239;BME280;16267;48.194;11.546;2023-05-02T13:08:35;96379.44;;;16.03;68.02
29239;BME280;16267;48.194;11.546;2023-05-02T13:11:02;96378.50;;;16.10;69.96
29239;BME280;16267;48.194;11.546;2023-05-02T13:13:29;96381.44;;;16.15;69.24
29239;BME280;16267;48.194;11.546;2023-05-02T13:15:55;96384.31;;;16.24;69.81
29239;BME280;16267;48.194;11.546;2023-05-02T13:18:21;96379.22;;;16.26;69.10
29239;BME280;16267;48.194;11.546;2023-05-02T13:20:47;96378.16;;;16.37;70.67
29239;BME280;16267;48.194;11.546;2023-05-02T13:23:13;96386.50;;;16.30;66.51
29239;BME280;16267;48.194;11.546;2023-05-02T13:25:41;96389.88;;;16.34;67.53
29239;BME280;16267;48.194;11.546;2023-05-02T13:28:07;96385.53;;;16.36;67.74
29239;BME280;16267;48.194;11.546;2023-05-02T13:30:32;96385.97;;;16.35;66.19
29239;BME280;16267;48.194;11.546;2023-05-02T13:32:58;96389.69;;;16.41;67.28